sensor_id;sensor_type;location;lat;lon;timestamp;P1;durP1;ratioP1;P2;durP2;ratioP2
48853;SDS011;34673;52.808;17.856;2024-03-02T00:00:40;100.82;;;50.17;;
48853;SDS011;34673;52.808;17.856;2024-03-02T00:03:07;113.47;;;53.25;;
48853;SDS011;34673;52.808;17.856;2024-03-02T00:05:37;93.78;;;48.33;;
48853;SDS011;34673;52.808;17.856;2024-03-02T00:08:05;107.28;;;52.05;;
48853;SDS011;34673;52.808;17.856;2024-03-02T00:10:37;100.72;;;49.60;;
48853;SDS011;34673;52.808;17.856;2024-03-02T00:13:08;111.10;;;53.60;;
48853;SDS011;34673;52.808;17.856;2024-03-02T00:15:45;100.68;;;47.58;;
48853;SDS011;34673;52.808;17.856;2024-03-02T00:18:33;104.57;;;50.88;;
48853;SDS011;34673;52.808;17.856;2024-03-02T00:21:02;106.47;;;53.90;;
48853;SDS011;34673;52.808;17.856;2024-03-02T00:23:30;108.82;;;52.35;;
48853;SDS011;34673;52.808;17.856;2024-03-02T00:25:58;96.57;;;47.70;;
48853;SDS011;34673;52.808;17.856;2024-03-02T00:28:35;106.90;;;54.22;;
48853;SDS011;34673;52.808;17.856;2024-03-02T00:33:32;106.15;;;50.90;;
48853;SDS011;34673;52.808;17.856;2024-03-02T00:36:04;105.28;;;50.80;;
48853;SDS011;34673;52.808;17.856;2024-03-02T00:38:34;105.07;;;49.95;;
48853;SDS011;34673;52.808;17.856;2024-03-02T00:41:21;107.30;;;53.58;;
48853;SDS011;34673;52.808;17.856;2024-03-02T00:43:57;99.57;;;49.10;;
48853;SDS011;34673;52.808;17.856;2024-03-02T00:46:33;108.13;;;51.45;;
48853;SDS011;34673;52.808;17.856;2024-03-02T00:51:38;109.22;;;52.28;;
48853;SDS011;34673;52.808;17.856;2024-03-02T00:54:07;109.18;;;53.03;;
48853;SDS011;34673;52.808;17.856;2024-03-02T00:56:36;110.20;;;51.10;;
48853;SDS011;34673;52.808;17.856;2024-03-02T00:59:03;111.75;;;52.10;;
48853;SDS011;34673;52.808;17.856;2024-03-02T01:01:31;104.50;;;53.60;;
48853;SDS011;34673;52.808;17.856;2024-03-02T01:03:58;103.25;;;50.47;;
48853;SDS011;34673;52.808;17.856;2024-03-02T01:06:26;99.03;;;48.53;;
48853;SDS011;34673;52.808;17.856;2024-03-02T01:08:53;102.10;;;50.10;;
48853;SDS011;34673;52.808;17.856;2024-03-02T01:11:21;107.93;;;50.70;;
48853;SDS011;34673;52.808;17.856;2024-03-02T01:13:51;102.47;;;49.78;;
48853;SDS011;34673;52.808;17.856;2024-03-02T01:16:19;98.72;;;48.75;;
48853;SDS011;34673;52.808;17.856;2024-03-02T01:18:47;106.97;;;49.60;;
48853;SDS011;34673;52.808;17.856;2024-03-02T01:21:15;100.13;;;49.55;;
48853;SDS011;34673;52.808;17.856;2024-03-02T01:23:42;96.53;;;48.63;;
48853;SDS011;34673;52.808;17.856;2024-03-02T01:26:10;102.72;;;50.22;;
48853;SDS011;34673;52.808;17.856;2024-03-02T01:28:37;94.57;;;48.67;;
48853;SDS011;34673;52.808;17.856;2024-03-02T01:31:05;89.25;;;43.88;;
48853;SDS011;34673;52.808;17.856;2024-03-02T01:33:32;90.90;;;47.22;;
48853;SDS011;34673;52.808;17.856;2024-03-02T01:36:00;97.22;;;46.78;;
48853;SDS011;34673;52.808;17.856;2024-03-02T01:38:27;93.53;;;46.17;;
48853;SDS011;34673;52.808;17.856;2024-03-02T01:40:55;83.68;;;44.33;;
48853;SDS011;34673;52.808;17.856;2024-03-02T01:43:23;84.00;;;42.78;;
48853;SDS011;34673;52.808;17.856;2024-03-02T01:45:51;98.32;;;47.83;;
48853;SDS011;34673;52.808;17.856;2024-03-02T01:48:18;80.88;;;42.63;;
48853;SDS011;34673;52.808;17.856;2024-03-02T01:50:46;86.15;;;45.00;;
48853;SDS011;34673;52.808;17.856;2024-03-02T01:53:13;84.05;;;42.83;;
48853;SDS011;34673;52.808;17.856;2024-03-02T01:55:41;89.20;;;46.05;;
48853;SDS011;34673;52.808;17.856;2024-03-02T01:58:08;80.47;;;43.00;;
48853;SDS011;34673;52.808;17.856;2024-03-02T02:00:36;77.72;;;40.28;;
48853;SDS011;34673;52.808;17.856;2024-03-02T02:03:04;83.63;;;41.35;;
48853;SDS011;34673;52.808;17.856;2024-03-02T02:05:31;80.55;;;42.47;;
48853;SDS011;34673;52.808;17.856;2024-03-02T02:07:58;75.25;;;40.53;;
48853;SDS011;34673;52.808;17.856;2024-03-02T02:10:26;94.13;;;44.85;;
48853;SDS011;34673;52.808;17.856;2024-03-02T02:12:53;85.05;;;43.08;;
48853;SDS011;34673;52.808;17.856;2024-03-02T02:15:24;80.38;;;40.75;;
48853;SDS011;34673;52.808;17.856;2024-03-02T02:17:52;80.70;;;42.72;;
48853;SDS011;34673;52.808;17.856;2024-03-02T02:20:21;83.32;;;43.28;;
48853;SDS011;34673;52.808;17.856;2024-03-02T02:25:25;88.50;;;47.35;;
48853;SDS011;34673;52.808;17.856;2024-03-02T02:27:53;82.18;;;44.65;;
48853;SDS011;34673;52.808;17.856;2024-03-02T02:30:22;83.07;;;41.38;;
48853;SDS011;34673;52.808;17.856;2024-03-02T02:32:50;82.13;;;43.35;;
48853;SDS011;34673;52.808;17.856;2024-03-02T02:35:18;75.57;;;40.17;;
48853;SDS011;34673;52.808;17.856;2024-03-02T02:37:46;86.90;;;44.55;;
48853;SDS011;34673;52.808;17.856;2024-03-02T02:40:14;84.80;;;43.65;;
48853;SDS011;34673;52.808;17.856;2024-03-02T02:42:42;82.50;;;42.22;;
48853;SDS011;34673;52.808;17.856;2024-03-02T02:45:09;78.97;;;41.58;;
48853;SDS011;34673;52.808;17.856;2024-03-02T02:47:40;73.95;;;40.47;;
48853;SDS011;34673;52.808;17.856;2024-03-02T02:50:08;75.40;;;40.40;;
48853;SDS011;34673;52.808;17.856;2024-03-02T02:52:37;84.47;;;42.92;;
48853;SDS011;34673;52.808;17.856;2024-03-02T02:55:08;78.18;;;40.67;;
48853;SDS011;34673;52.808;17.856;2024-03-02T02:57:37;81.90;;;41.60;;
48853;SDS011;34673;52.808;17.856;2024-03-02T03:00:07;77.03;;;40.85;;
48853;SDS011;34673;52.808;17.856;2024-03-02T03:02:45;69.95;;;36.85;;
48853;SDS011;34673;52.808;17.856;2024-03-02T03:05:15;77.22;;;38.95;;
48853;SDS011;34673;52.808;17.856;2024-03-02T03:07:42;76.65;;;40.83;;
48853;SDS011;34673;52.808;17.856;2024-03-02T03:10:11;76.00;;;40.90;;
48853;SDS011;34673;52.808;17.856;2024-03-02T03:12:40;73.35;;;38.33;;
48853;SDS011;34673;52.808;17.856;2024-03-02T03:17:38;75.70;;;38.58;;
48853;SDS011;34673;52.808;17.856;2024-03-02T03:20:06;78.85;;;39.92;;
48853;SDS011;34673;52.808;17.856;2024-03-02T03:22:37;77.82;;;39.97;;
48853;SDS011;34673;52.808;17.856;2024-03-02T03:25:05;77.18;;;40.10;;
48853;SDS011;34673;52.808;17.856;2024-03-02T03:27:32;71.10;;;36.75;;
48853;SDS011;34673;52.808;17.856;2024-03-02T03:30:00;69.22;;;37.20;;
48853;SDS011;34673;52.808;17.856;2024-03-02T03:32:27;73.63;;;40.15;;
48853;SDS011;34673;52.808;17.856;2024-03-02T03:34:55;69.88;;;38.10;;
48853;SDS011;34673;52.808;17.856;2024-03-02T03:37:22;68.78;;;38.42;;
48853;SDS011;34673;52.808;17.856;2024-03-02T03:39:50;70.72;;;36.92;;
48853;SDS011;34673;52.808;17.856;2024-03-02T03:42:18;78.95;;;40.45;;
48853;SDS011;34673;52.808;17.856;2024-03-02T03:44:45;74.50;;;37.42;;
48853;SDS011;34673;52.808;17.856;2024-03-02T03:47:13;75.88;;;37.78;;
48853;SDS011;34673;52.808;17.856;2024-03-02T03:49:40;68.22;;;38.97;;
48853;SDS011;34673;52.808;17.856;2024-03-02T03:52:07;67.38;;;36.03;;
48853;SDS011;34673;52.808;17.856;2024-03-02T03:54:35;67.28;;;35.03;;
48853;SDS011;34673;52.808;17.856;2024-03-02T03:57:04;64.05;;;35.10;;
48853;SDS011;34673;52.808;17.856;2024-03-02T03:59:31;72.88;;;36.45;;
48853;SDS011;34673;52.808;17.856;2024-03-02T04:01:59;66.93;;;35.25;;
48853;SDS011;34673;52.808;17.856;2024-03-02T04:04:26;66.32;;;36.30;;
48853;SDS011;34673;52.808;17.856;2024-03-02T04:06:53;62.75;;;34.65;;
48853;SDS011;34673;52.808;17.856;2024-03-02T04:09:21;63.85;;;36.38;;
48853;SDS011;34673;52.808;17.856;2024-03-02T04:11:48;64.00;;;35.53;;
48853;SDS011;34673;52.808;17.856;2024-03-02T04:14:16;67.38;;;36.83;;
48853;SDS011;34673;52.808;17.856;2024-03-02T04:16:43;60.38;;;34.50;;
48853;SDS011;34673;52.808;17.856;2024-03-02T04:19:11;57.22;;;33.90;;
48853;SDS011;34673;52.808;17.856;2024-03-02T04:21:39;61.92;;;34.15;;
48853;SDS011;34673;52.808;17.856;2024-03-02T04:24:06;62.38;;;35.42;;
48853;SDS011;34673;52.808;17.856;2024-03-02T04:26:33;59.72;;;33.60;;
48853;SDS011;34673;52.808;17.856;2024-03-02T04:29:01;62.85;;;32.97;;
48853;SDS011;34673;52.808;17.856;2024-03-02T04:31:28;63.83;;;33.80;;
48853;SDS011;34673;52.808;17.856;2024-03-02T04:33:56;64.57;;;34.13;;
48853;SDS011;34673;52.808;17.856;2024-03-02T04:36:23;58.35;;;32.58;;
48853;SDS011;34673;52.808;17.856;2024-03-02T04:38:51;61.75;;;33.85;;
48853;SDS011;34673;52.808;17.856;2024-03-02T04:41:18;57.88;;;31.52;;
48853;SDS011;34673;52.808;17.856;2024-03-02T04:43:46;64.60;;;34.03;;
48853;SDS011;34673;52.808;17.856;2024-03-02T04:46:13;57.92;;;32.95;;
48853;SDS011;34673;52.808;17.856;2024-03-02T04:48:40;57.40;;;33.03;;
48853;SDS011;34673;52.808;17.856;2024-03-02T04:51:09;56.47;;;32.08;;
48853;SDS011;34673;52.808;17.856;2024-03-02T04:53:36;67.10;;;34.67;;
48853;SDS011;34673;52.808;17.856;2024-03-02T04:56:03;56.88;;;31.42;;
48853;SDS011;34673;52.808;17.856;2024-03-02T04:58:57;61.20;;;34.65;;
48853;SDS011;34673;52.808;17.856;2024-03-02T05:01:24;56.85;;;32.78;;
48853;SDS011;34673;52.808;17.856;2024-03-02T05:03:52;60.63;;;32.35;;
48853;SDS011;34673;52.808;17.856;2024-03-02T05:06:19;52.55;;;30.60;;
48853;SDS011;34673;52.808;17.856;2024-03-02T05:08:47;57.08;;;31.38;;
48853;SDS011;34673;52.808;17.856;2024-03-02T05:11:14;55.63;;;31.63;;
48853;SDS011;34673;52.808;17.856;2024-03-02T05:14:01;58.20;;;33.78;;
48853;SDS011;34673;52.808;17.856;2024-03-02T05:16:28;59.95;;;34.15;;
48853;SDS011;34673;52.808;17.856;2024-03-02T05:18:55;60.00;;;34.17;;
48853;SDS011;34673;52.808;17.856;2024-03-02T05:21:23;54.47;;;32.38;;
48853;SDS011;34673;52.808;17.856;2024-03-02T05:23:50;56.67;;;32.45;;
48853;SDS011;34673;52.808;17.856;2024-03-02T05:26:18;56.13;;;31.20;;
48853;SDS011;34673;52.808;17.856;2024-03-02T05:28:45;55.38;;;32.65;;
48853;SDS011;34673;52.808;17.856;2024-03-02T05:31:14;56.33;;;32.92;;
48853;SDS011;34673;52.808;17.856;2024-03-02T05:36:11;53.28;;;32.17;;
48853;SDS011;34673;52.808;17.856;2024-03-02T05:38:39;55.78;;;30.60;;
48853;SDS011;34673;52.808;17.856;2024-03-02T05:41:06;57.05;;;32.50;;
48853;SDS011;34673;52.808;17.856;2024-03-02T05:43:34;53.67;;;30.08;;
48853;SDS011;34673;52.808;17.856;2024-03-02T05:46:01;52.72;;;31.15;;
48853;SDS011;34673;52.808;17.856;2024-03-02T05:48:29;51.88;;;31.77;;
48853;SDS011;34673;52.808;17.856;2024-03-02T05:50:56;54.40;;;31.27;;
48853;SDS011;34673;52.808;17.856;2024-03-02T05:53:23;49.10;;;30.83;;
48853;SDS011;34673;52.808;17.856;2024-03-02T05:55:51;57.78;;;32.28;;
48853;SDS011;34673;52.808;17.856;2024-03-02T05:58:22;50.75;;;30.42;;
48853;SDS011;34673;52.808;17.856;2024-03-02T06:01:08;53.13;;;31.27;;
48853;SDS011;34673;52.808;17.856;2024-03-02T06:03:36;53.42;;;31.13;;
48853;SDS011;34673;52.808;17.856;2024-03-02T06:06:03;48.65;;;30.17;;
48853;SDS011;34673;52.808;17.856;2024-03-02T06:08:31;57.20;;;32.03;;
48853;SDS011;34673;52.808;17.856;2024-03-02T06:10:59;51.33;;;30.33;;
48853;SDS011;34673;52.808;17.856;2024-03-02T06:13:26;49.38;;;29.00;;
48853;SDS011;34673;52.808;17.856;2024-03-02T06:15:53;51.38;;;31.05;;
48853;SDS011;34673;52.808;17.856;2024-03-02T06:18:21;52.65;;;30.25;;
48853;SDS011;34673;52.808;17.856;2024-03-02T06:20:48;53.10;;;32.38;;
48853;SDS011;34673;52.808;17.856;2024-03-02T06:23:16;55.10;;;31.38;;
48853;SDS011;34673;52.808;17.856;2024-03-02T06:25:43;50.45;;;30.35;;
48853;SDS011;34673;52.808;17.856;2024-03-02T06:28:11;50.25;;;29.83;;
48853;SDS011;34673;52.808;17.856;2024-03-02T06:30:38;48.33;;;29.58;;
48853;SDS011;34673;52.808;17.856;2024-03-02T06:33:06;50.72;;;29.13;;
48853;SDS011;34673;52.808;17.856;2024-03-02T06:35:33;52.22;;;32.58;;
48853;SDS011;34673;52.808;17.856;2024-03-02T06:38:02;50.03;;;29.15;;
48853;SDS011;34673;52.808;17.856;2024-03-02T06:40:29;54.97;;;30.70;;
48853;SDS011;34673;52.808;17.856;2024-03-02T06:42:56;50.20;;;30.25;;
48853;SDS011;34673;52.808;17.856;2024-03-02T06:45:24;53.50;;;30.33;;
48853;SDS011;34673;52.808;17.856;2024-03-02T06:47:52;50.40;;;28.98;;
48853;SDS011;34673;52.808;17.856;2024-03-02T06:50:19;51.85;;;30.95;;
48853;SDS011;34673;52.808;17.856;2024-03-02T06:52:46;52.13;;;30.08;;
48853;SDS011;34673;52.808;17.856;2024-03-02T06:55:14;45.88;;;29.20;;
48853;SDS011;34673;52.808;17.856;2024-03-02T06:57:41;51.22;;;29.85;;
48853;SDS011;34673;52.808;17.856;2024-03-02T07:00:09;48.17;;;30.92;;
48853;SDS011;34673;52.808;17.856;2024-03-02T07:02:37;48.47;;;29.38;;
48853;SDS011;34673;52.808;17.856;2024-03-02T07:05:04;51.05;;;29.60;;
48853;SDS011;34673;52.808;17.856;2024-03-02T07:07:34;51.40;;;29.40;;
48853;SDS011;34673;52.808;17.856;2024-03-02T07:10:05;50.33;;;29.67;;
48853;SDS011;34673;52.808;17.856;2024-03-02T07:12:34;51.58;;;30.98;;
48853;SDS011;34673;52.808;17.856;2024-03-02T07:15:02;49.55;;;30.58;;
48853;SDS011;34673;52.808;17.856;2024-03-02T07:17:30;52.47;;;31.52;;
48853;SDS011;34673;52.808;17.856;2024-03-02T07:19:58;50.30;;;30.23;;
48853;SDS011;34673;52.808;17.856;2024-03-02T07:22:26;47.55;;;28.30;;
48853;SDS011;34673;52.808;17.856;2024-03-02T07:24:54;50.83;;;31.75;;
48853;SDS011;34673;52.808;17.856;2024-03-02T07:27:21;53.08;;;30.73;;
48853;SDS011;34673;52.808;17.856;2024-03-02T07:29:49;47.83;;;28.88;;
48853;SDS011;34673;52.808;17.856;2024-03-02T07:32:16;51.13;;;29.95;;
48853;SDS011;34673;52.808;17.856;2024-03-02T07:34:43;51.75;;;30.17;;
48853;SDS011;34673;52.808;17.856;2024-03-02T07:37:11;48.60;;;30.52;;
48853;SDS011;34673;52.808;17.856;2024-03-02T07:39:38;53.97;;;30.83;;
48853;SDS011;34673;52.808;17.856;2024-03-02T07:42:06;50.88;;;29.30;;
48853;SDS011;34673;52.808;17.856;2024-03-02T07:44:33;45.55;;;28.15;;
48853;SDS011;34673;52.808;17.856;2024-03-02T07:47:01;46.05;;;27.25;;
48853;SDS011;34673;52.808;17.856;2024-03-02T07:49:28;43.72;;;27.25;;
48853;SDS011;34673;52.808;17.856;2024-03-02T07:51:55;48.33;;;28.60;;
48853;SDS011;34673;52.808;17.856;2024-03-02T07:54:23;42.50;;;27.35;;
48853;SDS011;34673;52.808;17.856;2024-03-02T07:56:51;43.25;;;26.95;;
48853;SDS011;34673;52.808;17.856;2024-03-02T07:59:18;46.00;;;28.85;;
48853;SDS011;34673;52.808;17.856;2024-03-02T08:01:46;47.15;;;27.90;;
48853;SDS011;34673;52.808;17.856;2024-03-02T08:04:13;44.97;;;29.55;;
48853;SDS011;34673;52.808;17.856;2024-03-02T08:06:41;49.60;;;29.10;;
48853;SDS011;34673;52.808;17.856;2024-03-02T08:09:08;48.17;;;28.15;;
48853;SDS011;34673;52.808;17.856;2024-03-02T08:11:38;46.38;;;29.23;;
48853;SDS011;34673;52.808;17.856;2024-03-02T08:14:06;49.35;;;27.60;;
48853;SDS011;34673;52.808;17.856;2024-03-02T08:16:33;49.03;;;28.65;;
48853;SDS011;34673;52.808;17.856;2024-03-02T08:19:01;44.88;;;28.58;;
48853;SDS011;34673;52.808;17.856;2024-03-02T08:21:28;42.95;;;27.92;;
48853;SDS011;34673;52.808;17.856;2024-03-02T08:23:57;43.20;;;27.60;;
48853;SDS011;34673;52.808;17.856;2024-03-02T08:26:25;48.25;;;28.98;;
48853;SDS011;34673;52.808;17.856;2024-03-02T08:28:55;42.90;;;27.15;;
48853;SDS011;34673;52.808;17.856;2024-03-02T08:31:23;47.85;;;29.00;;
48853;SDS011;34673;52.808;17.856;2024-03-02T08:33:50;44.00;;;28.40;;
48853;SDS011;34673;52.808;17.856;2024-03-02T08:36:18;40.33;;;27.33;;
48853;SDS011;34673;52.808;17.856;2024-03-02T08:38:46;45.70;;;27.35;;
48853;SDS011;34673;52.808;17.856;2024-03-02T08:41:16;43.75;;;28.63;;
48853;SDS011;34673;52.808;17.856;2024-03-02T08:43:44;43.28;;;27.10;;
48853;SDS011;34673;52.808;17.856;2024-03-02T08:46:11;48.53;;;29.63;;
48853;SDS011;34673;52.808;17.856;2024-03-02T08:48:39;44.10;;;26.98;;
48853;SDS011;34673;52.808;17.856;2024-03-02T08:51:06;43.55;;;26.92;;
48853;SDS011;34673;52.808;17.856;2024-03-02T08:53:37;44.03;;;27.13;;
48853;SDS011;34673;52.808;17.856;2024-03-02T08:56:05;41.33;;;27.38;;
48853;SDS011;34673;52.808;17.856;2024-03-02T08:58:33;48.58;;;28.15;;
48853;SDS011;34673;52.808;17.856;2024-03-02T09:01:00;45.45;;;27.88;;
48853;SDS011;34673;52.808;17.856;2024-03-02T09:03:29;47.65;;;29.00;;
48853;SDS011;34673;52.808;17.856;2024-03-02T09:05:56;42.55;;;27.42;;
48853;SDS011;34673;52.808;17.856;2024-03-02T09:08:24;42.75;;;27.42;;
48853;SDS011;34673;52.808;17.856;2024-03-02T09:10:51;39.53;;;25.73;;
48853;SDS011;34673;52.808;17.856;2024-03-02T09:13:19;40.97;;;26.52;;
48853;SDS011;34673;52.808;17.856;2024-03-02T09:15:47;42.47;;;26.30;;
48853;SDS011;34673;52.808;17.856;2024-03-02T09:18:15;45.30;;;27.02;;
48853;SDS011;34673;52.808;17.856;2024-03-02T09:20:42;43.03;;;27.40;;
48853;SDS011;34673;52.808;17.856;2024-03-02T09:23:10;40.58;;;26.70;;
48853;SDS011;34673;52.808;17.856;2024-03-02T09:25:37;42.50;;;27.45;;
48853;SDS011;34673;52.808;17.856;2024-03-02T09:28:05;43.88;;;27.00;;
48853;SDS011;34673;52.808;17.856;2024-03-02T09:30:32;39.95;;;26.83;;
48853;SDS011;34673;52.808;17.856;2024-03-02T09:33:00;41.45;;;26.77;;
48853;SDS011;34673;52.808;17.856;2024-03-02T09:35:30;44.63;;;27.50;;
48853;SDS011;34673;52.808;17.856;2024-03-02T09:37:58;40.58;;;26.70;;
48853;SDS011;34673;52.808;17.856;2024-03-02T09:40:25;39.40;;;25.33;;
48853;SDS011;34673;52.808;17.856;2024-03-02T09:42:53;38.00;;;24.48;;
48853;SDS011;34673;52.808;17.856;2024-03-02T09:45:24;42.15;;;25.42;;
48853;SDS011;34673;52.808;17.856;2024-03-02T09:47:54;38.55;;;24.45;;
48853;SDS011;34673;52.808;17.856;2024-03-02T09:50:21;37.50;;;25.45;;
48853;SDS011;34673;52.808;17.856;2024-03-02T09:52:49;41.42;;;26.13;;
48853;SDS011;34673;52.808;17.856;2024-03-02T09:55:17;39.05;;;26.00;;
48853;SDS011;34673;52.808;17.856;2024-03-02T09:57:46;38.58;;;25.48;;
48853;SDS011;34673;52.808;17.856;2024-03-02T10:00:15;39.10;;;25.48;;
48853;SDS011;34673;52.808;17.856;2024-03-02T10:02:43;40.70;;;27.10;;
48853;SDS011;34673;52.808;17.856;2024-03-02T10:05:11;40.75;;;24.73;;
48853;SDS011;34673;52.808;17.856;2024-03-02T10:07:39;41.53;;;25.35;;
48853;SDS011;34673;52.808;17.856;2024-03-02T10:10:13;37.92;;;24.45;;
48853;SDS011;34673;52.808;17.856;2024-03-02T10:12:41;37.10;;;24.20;;
48853;SDS011;34673;52.808;17.856;2024-03-02T10:15:09;37.97;;;24.77;;
48853;SDS011;34673;52.808;17.856;2024-03-02T10:17:38;41.10;;;25.88;;
48853;SDS011;34673;52.808;17.856;2024-03-02T10:20:21;36.83;;;24.48;;
48853;SDS011;34673;52.808;17.856;2024-03-02T10:22:50;40.05;;;25.15;;
48853;SDS011;34673;52.808;17.856;2024-03-02T10:25:30;36.67;;;23.70;;
48853;SDS011;34673;52.808;17.856;2024-03-02T10:28:16;36.80;;;24.80;;
48853;SDS011;34673;52.808;17.856;2024-03-02T10:30:47;36.78;;;24.13;;
48853;SDS011;34673;52.808;17.856;2024-03-02T10:33:20;37.42;;;25.02;;
48853;SDS011;34673;52.808;17.856;2024-03-02T10:35:49;39.20;;;25.42;;
48853;SDS011;34673;52.808;17.856;2024-03-02T10:38:17;35.13;;;25.13;;
48853;SDS011;34673;52.808;17.856;2024-03-02T10:40:48;40.97;;;24.55;;
48853;SDS011;34673;52.808;17.856;2024-03-02T10:43:15;37.65;;;23.85;;
48853;SDS011;34673;52.808;17.856;2024-03-02T10:45:45;38.38;;;24.70;;
48853;SDS011;34673;52.808;17.856;2024-03-02T10:48:16;37.58;;;24.27;;
48853;SDS011;34673;52.808;17.856;2024-03-02T10:50:43;36.20;;;23.45;;
48853;SDS011;34673;52.808;17.856;2024-03-02T10:53:11;38.33;;;25.33;;
48853;SDS011;34673;52.808;17.856;2024-03-02T10:55:39;39.20;;;23.92;;
48853;SDS011;34673;52.808;17.856;2024-03-02T10:58:06;38.22;;;25.00;;
48853;SDS011;34673;52.808;17.856;2024-03-02T11:00:39;38.13;;;25.40;;
48853;SDS011;34673;52.808;17.856;2024-03-02T11:03:08;37.80;;;25.03;;
48853;SDS011;34673;52.808;17.856;2024-03-02T11:05:42;36.70;;;25.10;;
48853;SDS011;34673;52.808;17.856;2024-03-02T11:08:13;38.03;;;24.92;;
48853;SDS011;34673;52.808;17.856;2024-03-02T11:13:32;39.80;;;25.77;;
48853;SDS011;34673;52.808;17.856;2024-03-02T11:19:07;41.55;;;26.63;;
48853;SDS011;34673;52.808;17.856;2024-03-02T11:21:41;39.35;;;25.38;;
48853;SDS011;34673;52.808;17.856;2024-03-02T11:26:54;38.50;;;25.55;;
48853;SDS011;34673;52.808;17.856;2024-03-02T11:32:19;40.33;;;26.45;;
48853;SDS011;34673;52.808;17.856;2024-03-02T11:34:49;40.03;;;27.60;;
48853;SDS011;34673;52.808;17.856;2024-03-02T11:37:18;42.30;;;27.42;;
48853;SDS011;34673;52.808;17.856;2024-03-02T11:39:48;40.92;;;27.77;;
48853;SDS011;34673;52.808;17.856;2024-03-02T11:42:18;44.80;;;28.42;;
48853;SDS011;34673;52.808;17.856;2024-03-02T11:44:46;47.30;;;29.88;;
48853;SDS011;34673;52.808;17.856;2024-03-02T11:47:15;42.63;;;29.75;;
48853;SDS011;34673;52.808;17.856;2024-03-02T11:49:45;45.47;;;29.97;;
48853;SDS011;34673;52.808;17.856;2024-03-02T11:52:17;53.63;;;34.35;;
48853;SDS011;34673;52.808;17.856;2024-03-02T11:54:45;61.20;;;36.65;;
48853;SDS011;34673;52.808;17.856;2024-03-02T11:57:21;51.67;;;33.47;;
48853;SDS011;34673;52.808;17.856;2024-03-02T11:59:49;49.67;;;33.42;;
48853;SDS011;34673;52.808;17.856;2024-03-02T12:02:19;44.65;;;32.25;;
48853;SDS011;34673;52.808;17.856;2024-03-02T12:04:47;52.40;;;33.40;;
48853;SDS011;34673;52.808;17.856;2024-03-02T12:07:22;49.55;;;32.45;;
48853;SDS011;34673;52.808;17.856;2024-03-02T12:10:00;47.25;;;31.15;;
48853;SDS011;34673;52.808;17.856;2024-03-02T12:12:32;52.20;;;32.85;;
48853;SDS011;34673;52.808;17.856;2024-03-02T12:14:59;52.60;;;33.35;;
48853;SDS011;34673;52.808;17.856;2024-03-02T12:17:28;52.17;;;32.58;;
48853;SDS011;34673;52.808;17.856;2024-03-02T12:19:56;50.13;;;32.97;;
48853;SDS011;34673;52.808;17.856;2024-03-02T12:22:23;55.53;;;35.03;;
48853;SDS011;34673;52.808;17.856;2024-03-02T12:24:51;46.97;;;30.70;;
48853;SDS011;34673;52.808;17.856;2024-03-02T12:27:19;46.85;;;32.10;;
48853;SDS011;34673;52.808;17.856;2024-03-02T12:29:48;51.88;;;32.08;;
48853;SDS011;34673;52.808;17.856;2024-03-02T12:32:15;48.33;;;32.40;;
48853;SDS011;34673;52.808;17.856;2024-03-02T12:34:46;49.85;;;32.72;;
48853;SDS011;34673;52.808;17.856;2024-03-02T12:37:14;48.10;;;34.25;;
48853;SDS011;34673;52.808;17.856;2024-03-02T12:39:44;48.83;;;32.40;;
48853;SDS011;34673;52.808;17.856;2024-03-02T12:42:13;49.83;;;32.40;;
48853;SDS011;34673;52.808;17.856;2024-03-02T12:44:40;50.65;;;32.97;;
48853;SDS011;34673;52.808;17.856;2024-03-02T12:47:08;47.58;;;31.20;;
48853;SDS011;34673;52.808;17.856;2024-03-02T12:49:35;49.22;;;33.85;;
48853;SDS011;34673;52.808;17.856;2024-03-02T12:52:03;48.17;;;33.00;;
48853;SDS011;34673;52.808;17.856;2024-03-02T12:54:31;47.83;;;33.03;;
48853;SDS011;34673;52.808;17.856;2024-03-02T12:57:00;48.92;;;31.50;;
48853;SDS011;34673;52.808;17.856;2024-03-02T12:59:28;50.30;;;31.38;;
48853;SDS011;34673;52.808;17.856;2024-03-02T13:01:56;51.40;;;32.30;;
48853;SDS011;34673;52.808;17.856;2024-03-02T13:04:28;47.08;;;31.52;;
48853;SDS011;34673;52.808;17.856;2024-03-02T13:06:56;48.63;;;31.75;;
48853;SDS011;34673;52.808;17.856;2024-03-02T13:09:24;47.95;;;31.30;;
48853;SDS011;34673;52.808;17.856;2024-03-02T13:11:53;43.92;;;31.42;;
48853;SDS011;34673;52.808;17.856;2024-03-02T13:14:24;50.85;;;30.67;;
48853;SDS011;34673;52.808;17.856;2024-03-02T13:16:53;49.50;;;32.45;;
48853;SDS011;34673;52.808;17.856;2024-03-02T13:19:20;49.75;;;33.00;;
48853;SDS011;34673;52.808;17.856;2024-03-02T13:21:47;52.20;;;35.00;;
48853;SDS011;34673;52.808;17.856;2024-03-02T13:24:15;50.25;;;33.92;;
48853;SDS011;34673;52.808;17.856;2024-03-02T13:26:42;52.60;;;32.17;;
48853;SDS011;34673;52.808;17.856;2024-03-02T13:29:10;51.35;;;32.70;;
48853;SDS011;34673;52.808;17.856;2024-03-02T13:31:37;51.30;;;33.15;;
48853;SDS011;34673;52.808;17.856;2024-03-02T13:34:05;47.67;;;32.38;;
48853;SDS011;34673;52.808;17.856;2024-03-02T13:36:32;47.67;;;31.50;;
48853;SDS011;34673;52.808;17.856;2024-03-02T13:38:59;52.53;;;33.05;;
48853;SDS011;34673;52.808;17.856;2024-03-02T13:41:27;52.00;;;34.40;;
48853;SDS011;34673;52.808;17.856;2024-03-02T13:43:54;47.53;;;32.58;;
48853;SDS011;34673;52.808;17.856;2024-03-02T13:46:22;51.15;;;33.33;;
48853;SDS011;34673;52.808;17.856;2024-03-02T13:48:50;52.13;;;34.45;;
48853;SDS011;34673;52.808;17.856;2024-03-02T13:51:23;50.80;;;32.78;;
48853;SDS011;34673;52.808;17.856;2024-03-02T13:53:52;55.83;;;36.50;;
48853;SDS011;34673;52.808;17.856;2024-03-02T13:56:19;55.10;;;34.55;;
48853;SDS011;34673;52.808;17.856;2024-03-02T13:58:47;52.65;;;35.35;;
48853;SDS011;34673;52.808;17.856;2024-03-02T14:01:14;55.40;;;34.75;;
48853;SDS011;34673;52.808;17.856;2024-03-02T14:03:42;55.88;;;37.40;;
48853;SDS011;34673;52.808;17.856;2024-03-02T14:06:09;52.38;;;33.92;;
48853;SDS011;34673;52.808;17.856;2024-03-02T14:08:36;57.58;;;36.50;;
48853;SDS011;34673;52.808;17.856;2024-03-02T14:11:04;56.38;;;36.45;;
48853;SDS011;34673;52.808;17.856;2024-03-02T14:13:31;57.42;;;35.90;;
48853;SDS011;34673;52.808;17.856;2024-03-02T14:15:59;55.70;;;34.45;;
48853;SDS011;34673;52.808;17.856;2024-03-02T14:18:26;53.92;;;34.63;;
48853;SDS011;34673;52.808;17.856;2024-03-02T14:20:54;60.90;;;36.95;;
48853;SDS011;34673;52.808;17.856;2024-03-02T14:23:23;66.65;;;40.15;;
48853;SDS011;34673;52.808;17.856;2024-03-02T14:25:50;60.05;;;36.92;;
48853;SDS011;34673;52.808;17.856;2024-03-02T14:28:17;58.42;;;36.00;;
48853;SDS011;34673;52.808;17.856;2024-03-02T14:31:06;58.53;;;38.08;;
48853;SDS011;34673;52.808;17.856;2024-03-02T14:33:33;61.53;;;35.50;;
48853;SDS011;34673;52.808;17.856;2024-03-02T14:36:01;61.97;;;37.85;;
48853;SDS011;34673;52.808;17.856;2024-03-02T14:38:31;62.17;;;38.75;;
48853;SDS011;34673;52.808;17.856;2024-03-02T14:40:58;58.92;;;36.72;;